Time;durP1;ratioP1;P1;durP2;ratioP2;P2;SDS_P1;SDS_P2;PMS_P1;PMS_P2;Temp;Humidity;BMP_temperature;BMP_pressure;BME280_temperature;BME280_humidity;BME280_pressure;Samples;Min_cycle;Max_cycle;Signal;HPM_P1;HPM_P2
2022/05/19 00:00:28;;;;;;;2.03;1.60;;;23.60;76.30;;;;;;5042645;28;20170;-66
2022/05/19 00:02:53;;;;;;;1.75;1.58;;;23.60;76.50;;;;;;5031285;28;20207;-67
2022/05/19 00:05:24;;;;;;;3.15;1.83;;;23.70;76.70;;;;;;5036795;28;20173;-67
2022/05/19 00:07:51;;;;;;;2.50;1.70;;;23.60;77.00;;;;;;5032790;28;20212;-66
2022/05/19 00:10:18;;;;;;;2.50;1.45;;;23.70;77.00;;;;;;5026771;28;20264;-67
2022/05/19 00:12:48;;;;;;;2.13;1.60;;;23.70;76.90;;;;;;5035279;28;20381;-66
2022/05/19 00:15:17;;;;;;;1.95;1.45;;;23.60;76.90;;;;;;5050090;28;20197;-67
2022/05/19 00:17:42;;;;;;;1.85;1.67;;;23.60;76.90;;;;;;5035547;28;20197;-67
2022/05/19 00:20:09;;;;;;;2.20;1.48;;;23.60;77.00;;;;;;5027593;28;20186;-65
2022/05/19 00:22:34;;;;;;;2.00;1.58;;;23.60;77.10;;;;;;5035347;28;20181;-67
2022/05/19 00:25:00;;;;;;;2.13;1.52;;;23.60;77.20;;;;;;5040252;28;20204;-67
2022/05/19 00:27:28;;;;;;;2.63;1.60;;;23.60;77.20;;;;;;5042735;28;20181;-67
2022/05/19 00:29:53;;;;;;;2.03;1.63;;;23.60;77.40;;;;;;5031249;28;20334;-67
2022/05/19 00:32:19;;;;;;;2.40;1.70;;;23.60;77.60;;;;;;5036094;28;20300;-68
2022/05/19 00:34:47;;;;;;;2.80;1.60;;;23.60;77.70;;;;;;5054514;28;20211;-66
2022/05/19 00:37:14;;;;;;;3.25;1.70;;;23.60;77.80;;;;;;5037853;28;20201;-67
2022/05/19 00:39:42;;;;;;;1.98;1.50;;;23.60;78.10;;;;;;5024115;28;20211;-67
2022/05/19 00:44:59;;;;;;;1.70;1.50;;;23.60;78.50;;;;;;5043284;28;20192;-67
2022/05/19 00:47:32;;;;;;;2.53;1.70;;;23.60;78.30;;;;;;5034852;28;20185;-67
2022/05/19 00:49:57;;;;;;;2.25;1.70;;;23.60;78.50;;;;;;5034881;28;20209;-66
2022/05/19 00:52:34;;;;;;;2.53;1.80;;;23.60;78.60;;;;;;5035498;28;20266;-67
2022/05/19 00:55:07;;;;;;;1.60;1.45;;;23.60;78.90;;;;;;5034777;28;20177;-66
2022/05/19 00:57:40;;;;;;;2.65;1.80;;;23.60;79.00;;;;;;5031696;28;20212;-67
2022/05/19 01:00:08;;;;;;;2.42;1.88;;;23.60;79.00;;;;;;5031005;28;20197;-66
2022/05/19 01:02:38;;;;;;;2.55;1.80;;;23.60;79.10;;;;;;5026109;28;20243;-67
2022/05/19 01:05:10;;;;;;;3.10;1.85;;;23.50;79.30;;;;;;5020819;28;20289;-67
2022/05/19 01:07:57;;;;;;;3.78;1.98;;;23.60;79.50;;;;;;5036602;28;20282;-67
2022/05/19 01:10:22;;;;;;;2.33;1.58;;;23.50;79.70;;;;;;5025919;28;20212;-66
2022/05/19 01:12:54;;;;;;;2.85;1.75;;;23.50;79.40;;;;;;5035006;28;20181;-67
2022/05/19 01:15:20;;;;;;;1.70;1.55;;;23.40;79.70;;;;;;5034369;28;20182;-67
2022/05/19 01:17:47;;;;;;;3.05;1.58;;;23.40;79.30;;;;;;5031610;28;20331;-68
2022/05/19 01:20:12;;;;;;;2.67;1.55;;;23.40;79.40;;;;;;5036497;28;20287;-67
2022/05/19 01:22:41;;;;;;;3.67;1.80;;;23.40;79.50;;;;;;5033146;28;20189;-66
2022/05/19 01:25:18;;;;;;;2.60;1.77;;;23.40;79.80;;;;;;5033083;28;20189;-68
2022/05/19 01:27:43;;;;;;;2.22;1.60;;;23.40;80.20;;;;;;5035400;28;20239;-67
2022/05/19 01:30:12;;;;;;;3.05;1.90;;;23.30;79.80;;;;;;5032525;28;20623;-67
2022/05/19 01:32:38;;;;;;;1.55;1.45;;;23.30;80.40;;;;;;5033427;28;20181;-66
2022/05/19 01:35:05;;;;;;;2.10;1.70;;;23.30;80.30;;;;;;5031196;28;20193;-67
2022/05/19 01:37:33;;;;;;;2.08;1.60;;;23.20;80.40;;;;;;5051482;28;20231;-67
2022/05/19 01:40:11;;;;;;;1.70;1.48;;;23.20;80.80;;;;;;5042433;28;20185;-66
2022/05/19 01:43:15;;;;;;;2.10;1.52;;;23.20;81.10;;;;;;5035445;28;20288;-67
2022/05/19 01:45:52;;;;;;;2.38;1.70;;;23.20;81.80;;;;;;5003484;28;20184;-66
2022/05/19 01:48:41;;;;;;;2.80;1.60;;;23.10;81.80;;;;;;5041727;28;21556;-67
2022/05/19 01:51:26;;;;;;;2.28;1.50;;;23.10;82.00;;;;;;5032769;28;20264;-67
2022/05/19 01:54:04;;;;;;;1.90;1.60;;;23.00;82.10;;;;;;5032736;28;20177;-67
2022/05/19 01:57:01;;;;;;;1.60;1.50;;;23.00;81.50;;;;;;5026945;28;20201;-67
2022/05/19 01:59:54;;;;;;;2.25;1.70;;;22.90;82.60;;;;;;5018101;28;20173;-66
2022/05/19 02:02:32;;;;;;;1.90;1.70;;;22.90;83.30;;;;;;5023237;28;20201;-67
2022/05/19 02:05:20;;;;;;;1.60;1.40;;;22.80;82.80;;;;;;5031658;28;20181;-68
2022/05/19 02:07:51;;;;;;;2.85;1.75;;;22.70;83.20;;;;;;5049148;28;20271;-66
2022/05/19 02:10:27;;;;;;;1.90;1.70;;;22.70;82.70;;;;;;5038649;28;20233;-68
2022/05/19 02:12:57;;;;;;;4.00;2.10;;;22.60;83.20;;;;;;5030571;28;20177;-67
2022/05/19 02:15:25;;;;;;;3.05;1.85;;;22.60;83.00;;;;;;5033488;28;20177;-67
2022/05/19 02:17:52;;;;;;;2.10;1.67;;;22.50;83.30;;;;;;5034281;28;20254;-66
2022/05/19 02:20:22;;;;;;;2.35;1.92;;;22.50;83.30;;;;;;5025017;28;20174;-67
2022/05/19 02:22:51;;;;;;;2.25;1.70;;;22.50;84.10;;;;;;5035127;28;20200;-67
2022/05/19 02:25:29;;;;;;;3.05;1.92;;;22.50;84.00;;;;;;5034321;28;20189;-68
2022/05/19 02:27:58;;;;;;;1.85;1.60;;;22.50;84.70;;;;;;5034480;28;20196;-67
2022/05/19 02:30:29;;;;;;;3.40;2.10;;;22.40;83.90;;;;;;5034787;28;20196;-67
2022/05/19 02:32:57;;;;;;;2.80;1.73;;;22.40;84.50;;;;;;5048574;28;20189;-67
2022/05/19 02:35:26;;;;;;;2.45;1.70;;;22.40;84.60;;;;;;5035470;28;20173;-67
2022/05/19 02:37:58;;;;;;;1.90;1.60;;;22.40;84.70;;;;;;5053832;28;20213;-67
2022/05/19 02:40:28;;;;;;;2.58;1.70;;;22.40;84.90;;;;;;5038160;28;20178;-67
2022/05/19 02:42:56;;;;;;;3.13;1.90;;;22.40;85.10;;;;;;5034820;28;20190;-66
2022/05/19 02:45:26;;;;;;;2.75;1.92;;;22.40;85.90;;;;;;5032697;28;20340;-67
2022/05/19 02:47:52;;;;;;;2.05;1.80;;;22.30;85.40;;;;;;5038110;28;20324;-66
2022/05/19 02:50:19;;;;;;;2.75;1.85;;;22.30;85.70;;;;;;5036035;28;20413;-66
2022/05/19 02:52:51;;;;;;;2.28;1.70;;;22.30;86.10;;;;;;5025517;28;20236;-67
2022/05/19 02:55:17;;;;;;;3.70;1.80;;;22.20;86.70;;;;;;5034540;28;20177;-67
2022/05/19 02:57:44;;;;;;;3.78;1.80;;;22.20;86.50;;;;;;5036562;28;20210;-67
2022/05/19 03:00:14;;;;;;;2.55;1.70;;;22.10;86.60;;;;;;5040430;28;20190;-67
2022/05/19 03:02:41;;;;;;;2.03;1.83;;;22.10;87.50;;;;;;5037106;28;20185;-67
2022/05/19 03:05:12;;;;;;;1.95;1.70;;;22.00;87.30;;;;;;5034207;28;20181;-67
2022/05/19 03:07:40;;;;;;;2.30;1.75;;;21.90;88.30;;;;;;5041027;28;20178;-68
2022/05/19 03:10:08;;;;;;;2.80;2.17;;;21.80;87.90;;;;;;5038213;28;20177;-66
2022/05/19 03:12:36;;;;;;;2.20;2.00;;;21.80;88.20;;;;;;5050043;28;20200;-67
2022/05/19 03:15:02;;;;;;;2.08;1.80;;;21.70;88.50;;;;;;5037446;28;20185;-67
2022/05/19 03:17:30;;;;;;;2.20;1.77;;;21.70;89.10;;;;;;5038352;28;20258;-66
2022/05/19 03:19:59;;;;;;;2.47;1.85;;;21.60;89.30;;;;;;5053813;28;20201;-67
2022/05/19 03:22:25;;;;;;;3.38;2.10;;;21.60;89.60;;;;;;5039549;28;20178;-67
2022/05/19 03:24:51;;;;;;;2.17;1.85;;;21.50;90.00;;;;;;5049214;28;20181;-67
2022/05/19 03:27:22;;;;;;;4.28;3.50;;;21.50;90.20;;;;;;5036449;28;20182;-67
2022/05/19 03:29:49;;;;;;;6.45;5.75;;;21.40;90.70;;;;;;5033468;28;20173;-67
2022/05/19 03:32:17;;;;;;;7.18;6.45;;;21.40;90.70;;;;;;5053214;28;20185;-67
2022/05/19 03:34:43;;;;;;;4.55;3.97;;;21.30;91.10;;;;;;5037182;28;20409;-65
2022/05/19 03:37:09;;;;;;;4.55;3.38;;;21.30;91.10;;;;;;5037458;28;20235;-67
2022/05/19 03:39:40;;;;;;;6.90;5.88;;;21.20;91.20;;;;;;5036596;28;20203;-68
2022/05/19 03:42:07;;;;;;;6.15;5.40;;;21.20;91.50;;;;;;5029359;28;20216;-67
2022/05/19 03:44:34;;;;;;;4.80;3.83;;;21.10;91.70;;;;;;5035636;28;20181;-67
2022/05/19 03:47:00;;;;;;;4.43;3.25;;;21.10;91.90;;;;;;5032039;28;20280;-68
2022/05/19 03:49:26;;;;;;;4.30;2.92;;;21.10;92.10;;;;;;5036022;28;20208;-66
2022/05/19 03:51:52;;;;;;;3.42;2.25;;;21.10;92.30;;;;;;5033954;28;20230;-66
2022/05/19 03:54:18;;;;;;;2.50;2.30;;;21.00;92.50;;;;;;5019391;28;20205;-67
2022/05/19 03:56:46;;;;;;;12.32;10.77;;;21.00;92.60;;;;;;5033586;28;20186;-67
2022/05/19 03:59:14;;;;;;;6.72;5.63;;;21.00;92.80;;;;;;5034729;28;20248;-67
2022/05/19 04:01:40;;;;;;;6.00;4.35;;;21.00;93.20;;;;;;5032886;28;20204;-68
2022/05/19 04:04:08;;;;;;;3.85;3.40;;;20.90;93.20;;;;;;5037114;28;20177;-67
2022/05/19 04:06:35;;;;;;;3.22;2.85;;;20.90;93.50;;;;;;5030510;28;20169;-67
2022/05/19 04:09:03;;;;;;;3.90;2.85;;;20.90;93.70;;;;;;5051034;28;20169;-67
2022/05/19 04:11:32;;;;;;;4.75;2.22;;;20.90;93.80;;;;;;5034612;28;20190;-66
2022/05/19 04:14:00;;;;;;;2.45;2.15;;;20.90;94.30;;;;;;5035283;28;20169;-67
2022/05/19 04:16:26;;;;;;;3.00;2.22;;;20.90;94.20;;;;;;5029929;28;20239;-66
2022/05/19 04:18:54;;;;;;;4.10;2.40;;;21.00;94.50;;;;;;5033463;28;20166;-67
2022/05/19 04:21:20;;;;;;;3.17;2.20;;;21.00;94.80;;;;;;5037425;28;20292;-67
2022/05/19 04:23:46;;;;;;;6.35;5.22;;;21.00;94.90;;;;;;5036742;28;20263;-67
2022/05/19 04:26:12;;;;;;;5.22;3.42;;;21.00;94.90;;;;;;5037299;28;20224;-68
2022/05/19 04:28:40;;;;;;;3.67;2.78;;;21.00;95.10;;;;;;5035221;28;20198;-67
2022/05/19 04:31:08;;;;;;;5.20;2.30;;;21.00;95.30;;;;;;5022643;28;20196;-68
2022/05/19 04:33:35;;;;;;;2.40;2.20;;;21.10;95.60;;;;;;5031482;28;20182;-67
2022/05/19 04:36:07;;;;;;;6.72;2.78;;;21.10;95.40;;;;;;5032654;28;20193;-68
2022/05/19 04:38:35;;;;;;;3.33;2.30;;;21.10;96.00;;;;;;5034317;28;20197;-67
2022/05/19 04:41:03;;;;;;;2.38;1.90;;;21.20;95.70;;;;;;5034726;28;20198;-66
2022/05/19 04:43:29;;;;;;;2.72;2.03;;;21.20;95.70;;;;;;5022977;28;20190;-69
2022/05/19 04:45:58;;;;;;;2.25;1.95;;;21.20;95.80;;;;;;5034293;28;20177;-68
2022/05/19 04:48:25;;;;;;;3.97;2.30;;;21.30;96.00;;;;;;5036190;28;20177;-70
2022/05/19 04:50:59;;;;;;;4.78;2.42;;;21.30;95.80;;;;;;5031791;28;20182;-68
2022/05/19 04:53:25;;;;;;;2.22;2.03;;;21.40;96.10;;;;;;5034808;28;20204;-66
2022/05/19 04:55:53;;;;;;;2.95;2.10;;;21.40;96.00;;;;;;5035877;28;20223;-65
2022/05/19 04:58:22;;;;;;;2.67;2.00;;;21.50;96.10;;;;;;5037497;28;20209;-67
2022/05/19 05:00:49;;;;;;;2.75;1.83;;;21.50;96.20;;;;;;5050015;28;20197;-68
2022/05/19 05:03:14;;;;;;;2.20;2.00;;;21.60;96.20;;;;;;5031894;28;20242;-68
2022/05/19 05:05:40;;;;;;;3.20;2.05;;;21.60;96.20;;;;;;5036519;28;20181;-66
2022/05/19 05:08:11;;;;;;;2.05;1.85;;;21.60;96.30;;;;;;5050557;28;20280;-68
2022/05/19 05:10:40;;;;;;;2.55;2.00;;;21.70;96.50;;;;;;5027964;28;20265;-67
2022/05/19 05:13:11;;;;;;;3.15;2.05;;;21.70;96.40;;;;;;5031895;28;20288;-68
2022/05/19 05:15:38;;;;;;;2.55;1.98;;;21.70;96.70;;;;;;5036855;28;20191;-65
2022/05/19 05:18:09;;;;;;;2.78;2.08;;;21.70;96.50;;;;;;5033640;28;20197;-64
2022/05/19 05:20:41;;;;;;;3.38;2.22;;;21.80;96.60;;;;;;5046501;28;20228;-70
2022/05/19 05:23:11;;;;;;;3.50;2.45;;;21.80;96.80;;;;;;5052023;28;20165;-69
2022/05/19 05:25:40;;;;;;;3.25;2.60;;;21.80;96.80;;;;;;5032547;28;20282;-69
2022/05/19 05:28:08;;;;;;;2.85;2.08;;;21.90;96.90;;;;;;5034800;28;20217;-68
2022/05/19 05:30:35;;;;;;;3.63;2.30;;;21.90;97.30;;;;;;5032622;28;20233;-69
2022/05/19 05:33:06;;;;;;;3.45;2.42;;;21.90;97.20;;;;;;5023080;28;20205;-69
2022/05/19 05:35:32;;;;;;;2.33;2.00;;;22.00;97.50;;;;;;5035233;28;20183;-69
2022/05/19 05:38:03;;;;;;;2.22;1.90;;;22.00;97.30;;;;;;5033803;28;20205;-69
2022/05/19 05:40:28;;;;;;;2.72;1.98;;;22.10;97.40;;;;;;5025394;28;20173;-70
2022/05/19 05:42:54;;;;;;;3.58;2.10;;;22.10;97.20;;;;;;5027182;28;20169;-71
2022/05/19 05:45:22;;;;;;;2.58;2.10;;;22.20;97.20;;;;;;5034277;28;20212;-69
2022/05/19 05:47:50;;;;;;;2.00;1.73;;;22.30;97.00;;;;;;5034574;28;20177;-69
2022/05/19 05:50:16;;;;;;;1.95;1.80;;;22.30;96.90;;;;;;5035175;28;20271;-69
2022/05/19 05:52:44;;;;;;;2.60;1.90;;;22.40;96.80;;;;;;5034075;28;20248;-70
2022/05/19 05:55:10;;;;;;;2.35;2.00;;;22.50;96.70;;;;;;5035603;28;20189;-69
2022/05/19 05:57:38;;;;;;;3.63;2.00;;;22.60;96.60;;;;;;5035094;28;20216;-65
2022/05/19 06:00:11;;;;;;;2.08;1.63;;;22.60;96.50;;;;;;5035537;28;20177;-68
2022/05/19 06:02:36;;;;;;;2.05;1.60;;;22.70;96.40;;;;;;5042923;28;20176;-69
2022/05/19 06:05:03;;;;;;;2.10;1.88;;;22.80;96.40;;;;;;5044183;28;20194;-68
2022/05/19 06:07:31;;;;;;;2.03;1.60;;;22.90;96.30;;;;;;5029207;28;20266;-69
2022/05/19 06:09:57;;;;;;;4.05;1.70;;;23.00;96.20;;;;;;5048244;28;20216;-69
2022/05/19 06:12:24;;;;;;;1.65;1.50;;;23.00;96.00;;;;;;5038114;28;20238;-69
2022/05/19 06:14:53;;;;;;;2.75;1.70;;;23.10;95.90;;;;;;5039877;28;20192;-70
2022/05/19 06:17:19;;;;;;;2.55;1.50;;;23.20;96.00;;;;;;5047713;28;20281;-68
2022/05/19 06:19:45;;;;;;;1.45;1.35;;;23.30;96.00;;;;;;5039991;28;20198;-69
2022/05/19 06:22:13;;;;;;;2.45;1.75;;;23.30;95.80;;;;;;5031022;28;20182;-70
2022/05/19 06:24:39;;;;;;;2.95;2.03;;;23.40;95.80;;;;;;5024789;28;20204;-68
2022/05/19 06:27:07;;;;;;;2.78;1.75;;;23.40;95.80;;;;;;5039133;28;20196;-69
2022/05/19 06:29:35;;;;;;;4.57;1.98;;;23.50;95.90;;;;;;5039710;28;20181;-70
2022/05/19 06:32:02;;;;;;;2.97;1.73;;;23.60;96.00;;;;;;5032158;28;20180;-70
2022/05/19 06:34:31;;;;;;;2.05;1.80;;;23.60;95.90;;;;;;5044427;28;20183;-70
2022/05/19 06:36:56;;;;;;;4.05;1.92;;;23.70;96.40;;;;;;5038929;28;20213;-69
2022/05/19 06:39:22;;;;;;;2.95;1.80;;;23.70;96.20;;;;;;5039174;28;20235;-70
2022/05/19 06:42:03;;;;;;;2.92;1.58;;;23.80;96.10;;;;;;5039042;28;20174;-69
2022/05/19 06:44:29;;;;;;;2.85;1.90;;;23.90;96.00;;;;;;5034136;28;20191;-70
2022/05/19 06:46:57;;;;;;;3.55;1.80;;;24.00;95.80;;;;;;5039013;28;20181;-70
2022/05/19 06:49:23;;;;;;;2.33;1.70;;;24.00;95.70;;;;;;5039182;28;20201;-68
2022/05/19 06:51:49;;;;;;;2.20;1.52;;;24.10;95.60;;;;;;5038918;28;20195;-69
2022/05/19 06:54:16;;;;;;;2.15;1.60;;;24.20;95.50;;;;;;5036713;28;20177;-70
2022/05/19 06:56:42;;;;;;;2.42;1.88;;;24.20;95.40;;;;;;5029958;28;20197;-67
2022/05/19 06:59:15;;;;;;;2.72;1.65;;;24.30;95.30;;;;;;5039543;28;20244;-70
2022/05/19 07:01:41;;;;;;;1.58;1.48;;;24.40;95.30;;;;;;5039201;28;20362;-69
2022/05/19 07:04:07;;;;;;;2.15;1.60;;;24.50;95.20;;;;;;5038877;28;20235;-70
2022/05/19 07:06:33;;;;;;;2.92;1.70;;;24.50;95.40;;;;;;5038911;28;20201;-69
2022/05/19 07:08:58;;;;;;;2.17;1.60;;;24.60;95.10;;;;;;5041276;28;20205;-70
2022/05/19 07:11:29;;;;;;;2.15;1.60;;;24.70;95.00;;;;;;5033228;28;20169;-69
2022/05/19 07:14:06;;;;;;;1.70;1.50;;;24.70;94.80;;;;;;5039018;28;20201;-70
2022/05/19 07:16:32;;;;;;;2.95;1.70;;;24.80;94.70;;;;;;5045156;28;20188;-69
2022/05/19 07:21:48;;;;;;;1.80;1.70;;;25.00;94.50;;;;;;5054674;28;20204;-69
2022/05/19 07:24:21;;;;;;;2.58;1.50;;;25.10;94.50;;;;;;5036281;28;20185;-71
2022/05/19 07:26:54;;;;;;;1.58;1.38;;;25.20;94.20;;;;;;5038198;28;20177;-69
2022/05/19 07:29:21;;;;;;;2.03;1.75;;;25.20;94.30;;;;;;5035888;28;20208;-71
2022/05/19 07:31:47;;;;;;;3.90;2.00;;;25.30;94.20;;;;;;5022038;28;20200;-70
2022/05/19 07:34:17;;;;;;;3.45;1.92;;;25.40;94.20;;;;;;5037786;28;20351;-70
2022/05/19 07:36:43;;;;;;;2.45;1.90;;;25.40;93.70;;;;;;5038482;28;20176;-69
2022/05/19 07:39:11;;;;;;;2.38;1.70;;;25.50;93.70;;;;;;5055515;28;20177;-70
2022/05/19 07:41:39;;;;;;;2.40;1.95;;;25.50;93.60;;;;;;5036795;28;20251;-71
2022/05/19 07:44:07;;;;;;;3.35;1.70;;;25.50;93.70;;;;;;5038291;28;20182;-70
2022/05/19 07:46:33;;;;;;;3.00;2.00;;;25.60;93.80;;;;;;5038252;28;20251;-68
2022/05/19 07:48:59;;;;;;;3.08;1.73;;;25.60;93.70;;;;;;5038502;28;20254;-69
2022/05/19 07:51:28;;;;;;;4.25;2.00;;;25.70;93.80;;;;;;5037363;28;20181;-70
2022/05/19 07:53:54;;;;;;;2.20;1.85;;;25.80;93.50;;;;;;5030356;28;20177;-70
2022/05/19 07:56:25;;;;;;;3.67;2.03;;;25.80;93.60;;;;;;5018189;28;20166;-70
2022/05/19 07:58:53;;;;;;;1.83;1.73;;;25.90;93.20;;;;;;5025588;28;20252;-71
2022/05/19 08:01:19;;;;;;;2.65;1.95;;;26.00;93.30;;;;;;5022407;28;20208;-70
2022/05/19 08:03:45;;;;;;;2.40;2.20;;;26.10;93.10;;;;;;5024046;28;20174;-69
2022/05/19 08:06:11;;;;;;;1.77;1.58;;;26.10;92.90;;;;;;5037774;28;20172;-70
2022/05/19 08:08:39;;;;;;;2.45;1.60;;;26.20;93.00;;;;;;5035710;28;20185;-68
2022/05/19 08:11:05;;;;;;;2.80;1.92;;;26.30;93.10;;;;;;5037949;28;20264;-71
2022/05/19 08:16:15;;;;;;;3.47;1.55;;;26.50;92.60;;;;;;5052902;28;20260;-70
2022/05/19 08:18:41;;;;;;;3.00;1.80;;;26.50;92.60;;;;;;5039055;28;20287;-71
2022/05/19 08:21:11;;;;;;;2.17;1.80;;;26.60;92.60;;;;;;5035402;28;20194;-70
2022/05/19 08:23:46;;;;;;;2.63;1.70;;;26.70;92.20;;;;;;5035796;28;20181;-71
2022/05/19 08:26:12;;;;;;;3.63;2.00;;;26.70;92.10;;;;;;5033685;28;20231;-70
2022/05/19 08:28:42;;;;;;;3.75;2.17;;;26.80;92.20;;;;;;5037038;28;20180;-69
2022/05/19 08:31:14;;;;;;;2.85;1.65;;;26.90;92.00;;;;;;5036961;28;20208;-70
2022/05/19 08:33:44;;;;;;;4.70;1.70;;;26.90;92.30;;;;;;5034985;28;20197;-70
2022/05/19 08:36:12;;;;;;;2.30;1.63;;;27.10;92.00;;;;;;5037471;28;20181;-69
2022/05/19 08:38:39;;;;;;;2.10;1.90;;;27.20;92.10;;;;;;5031565;28;20280;-70
2022/05/19 08:41:22;;;;;;;2.40;1.90;;;27.30;92.00;;;;;;5036943;28;20176;-70
2022/05/19 08:43:50;;;;;;;4.13;1.90;;;27.40;91.50;;;;;;5031158;28;20192;-69
2022/05/19 08:46:25;;;;;;;3.10;1.85;;;27.50;91.70;;;;;;5036525;28;20308;-70
2022/05/19 08:48:55;;;;;;;2.20;1.90;;;27.60;91.10;;;;;;5036974;28;20165;-70
2022/05/19 08:51:25;;;;;;;3.05;1.95;;;27.60;91.10;;;;;;5033271;28;20181;-70
2022/05/19 08:53:58;;;;;;;2.28;2.08;;;27.70;90.90;;;;;;5026013;28;20265;-70
2022/05/19 08:56:27;;;;;;;4.53;2.40;;;27.70;90.60;;;;;;5034421;28;20212;-70
2022/05/19 08:59:30;;;;;;;3.10;2.08;;;27.80;89.70;;;;;;5036951;28;20403;-68
2022/05/19 09:02:19;;;;;;;3.83;2.25;;;27.80;88.20;;;;;;5033729;28;20184;-69
2022/05/19 09:05:11;;;;;;;4.05;2.00;;;27.80;88.10;;;;;;5033532;28;20199;-70
2022/05/19 09:07:58;;;;;;;4.72;2.08;;;27.80;86.60;;;;;;5035972;28;20300;-70
2022/05/19 09:10:48;;;;;;;2.95;1.95;;;27.80;88.60;;;;;;5022506;28;20170;-70
2022/05/19 09:13:16;;;;;;;3.45;1.90;;;27.90;87.50;;;;;;5034929;28;20237;-71
2022/05/19 09:15:47;;;;;;;2.00;1.80;;;27.90;88.50;;;;;;5032447;28;20308;-71
2022/05/19 09:18:19;;;;;;;1.95;1.80;;;27.90;88.30;;;;;;5030664;28;20197;-70
2022/05/19 09:20:55;;;;;;;2.22;1.90;;;27.90;87.80;;;;;;5035842;28;20173;-70
2022/05/19 09:23:24;;;;;;;2.35;1.73;;;27.90;86.50;;;;;;5036326;28;20181;-70
2022/05/19 09:25:54;;;;;;;2.65;2.10;;;27.90;86.60;;;;;;5035718;28;20300;-69
2022/05/19 09:28:22;;;;;;;3.22;2.17;;;28.00;86.10;;;;;;5035353;28;20207;-69
2022/05/19 09:30:51;;;;;;;2.08;1.88;;;27.90;86.80;;;;;;5036125;28;20279;-69
2022/05/19 09:33:44;;;;;;;2.38;1.80;;;28.00;85.90;;;;;;5023001;28;20178;-70
2022/05/19 09:36:13;;;;;;;3.70;2.20;;;28.00;86.30;;;;;;5034658;28;20177;-68
2022/05/19 09:38:49;;;;;;;3.25;1.92;;;28.10;86.30;;;;;;5035591;28;20292;-68
2022/05/19 09:41:34;;;;;;;2.35;1.90;;;28.10;85.40;;;;;;5036475;28;20177;-71
2022/05/19 09:44:04;;;;;;;2.30;1.92;;;28.20;84.80;;;;;;5016583;28;20197;-70
2022/05/19 09:46:51;;;;;;;4.82;1.90;;;28.30;84.60;;;;;;5032990;28;20173;-70
2022/05/19 09:49:44;;;;;;;3.83;2.10;;;28.40;83.70;;;;;;5036539;28;20456;-70
2022/05/19 09:52:19;;;;;;;3.33;2.08;;;28.50;83.40;;;;;;5034085;28;20239;-69
2022/05/19 09:54:52;;;;;;;2.35;1.70;;;28.60;85.00;;;;;;5028213;28;20173;-71
2022/05/19 09:57:34;;;;;;;4.22;1.90;;;28.70;84.80;;;;;;5035520;28;20220;-70
2022/05/19 10:00:11;;;;;;;1.80;1.70;;;28.70;84.30;;;;;;5034952;28;20192;-70
2022/05/19 10:02:44;;;;;;;2.88;2.20;;;28.80;84.00;;;;;;5029963;28;20201;-71
2022/05/19 10:05:25;;;;;;;4.95;1.90;;;28.80;83.90;;;;;;5034031;28;20239;-71
2022/05/19 10:08:04;;;;;;;2.28;1.50;;;28.90;83.60;;;;;;5031114;28;20424;-70
2022/05/19 10:10:56;;;;;;;2.25;1.70;;;29.00;84.10;;;;;;5045838;28;20225;-69
2022/05/19 10:13:52;;;;;;;3.35;2.00;;;29.00;83.90;;;;;;5035740;28;20173;-70
2022/05/19 10:16:39;;;;;;;2.20;1.80;;;29.10;83.60;;;;;;5029156;28;20181;-70
2022/05/19 10:19:07;;;;;;;2.40;1.65;;;29.10;83.50;;;;;;5051901;28;20235;-70
2022/05/19 10:22:01;;;;;;;2.65;1.98;;;29.20;84.30;;;;;;5040221;28;20189;-68
2022/05/19 10:25:08;;;;;;;2.50;2.00;;;29.20;83.20;;;;;;5035990;28;20216;-70
2022/05/19 10:31:03;;;;;;;7.18;2.00;;;29.20;82.00;;;;;;5044870;28;20218;-70
2022/05/19 10:33:53;;;;;;;3.72;2.00;;;29.20;82.20;;;;;;5029242;28;20246;-70
2022/05/19 10:36:48;;;;;;;2.70;1.92;;;29.20;81.80;;;;;;5051825;28;20173;-70
2022/05/19 10:39:44;;;;;;;1.77;1.67;;;29.20;82.40;;;;;;5035046;28;20193;-70
2022/05/19 10:43:00;;;;;;;2.50;1.83;;;29.20;82.00;;;;;;5034509;28;20173;-70
2022/05/19 10:45:30;;;;;;;3.80;2.08;;;29.30;81.70;;;;;;4961376;28;20182;-71
2022/05/19 10:48:22;;;;;;;2.67;1.75;;;29.30;82.50;;;;;;5033897;28;20173;-70
2022/05/19 10:51:09;;;;;;;3.25;2.13;;;29.30;81.30;;;;;;5036533;28;20173;-69
2022/05/19 10:53:55;;;;;;;2.92;2.08;;;29.40;81.00;;;;;;5035674;28;20181;-70
2022/05/19 10:56:23;;;;;;;2.70;2.20;;;29.40;80.90;;;;;;5035534;28;20216;-69
2022/05/19 10:59:20;;;;;;;2.67;1.98;;;29.50;81.50;;;;;;5035849;28;20205;-70
2022/05/19 11:02:05;;;;;;;2.70;2.00;;;29.50;80.00;;;;;;5018483;28;20192;-70
2022/05/19 11:04:36;;;;;;;3.28;2.05;;;29.60;81.70;;;;;;5036971;28;20230;-70
2022/05/19 11:07:11;;;;;;;2.15;1.95;;;29.70;82.10;;;;;;5038587;28;20263;-71
2022/05/19 11:09:43;;;;;;;2.40;1.90;;;29.90;81.70;;;;;;5039175;28;20204;-70
2022/05/19 11:12:14;;;;;;;2.08;1.88;;;30.00;81.20;;;;;;5055750;28;20208;-71
2022/05/19 11:15:05;;;;;;;4.18;2.17;;;30.00;80.60;;;;;;5032614;28;20173;-70
2022/05/19 11:17:40;;;;;;;2.72;2.20;;;30.00;79.80;;;;;;5054845;28;20204;-69
2022/05/19 11:20:14;;;;;;;3.40;2.17;;;30.00;79.70;;;;;;5038511;28;20192;-71
2022/05/19 11:22:41;;;;;;;3.05;2.10;;;29.90;79.00;;;;;;5036784;28;20214;-69
2022/05/19 11:28:24;;;;;;;4.30;2.10;;;29.50;78.50;;;;;;5056183;28;20219;-70
2022/05/19 11:30:58;;;;;;;3.60;2.50;;;29.40;78.80;;;;;;5035360;28;20199;-70
2022/05/19 11:33:33;;;;;;;4.45;2.20;;;29.10;79.40;;;;;;5023133;28;20208;-70
2022/05/19 11:36:03;;;;;;;3.03;2.30;;;29.10;80.60;;;;;;5035363;28;20207;-68
2022/05/19 11:38:37;;;;;;;3.85;2.28;;;29.00;81.30;;;;;;5038525;28;20193;-70
2022/05/19 11:41:17;;;;;;;3.03;2.22;;;29.00;82.10;;;;;;5033195;28;20182;-68
2022/05/19 11:43:52;;;;;;;2.85;2.08;;;29.10;82.60;;;;;;5035099;28;20176;-70
2022/05/19 11:46:22;;;;;;;2.65;2.25;;;29.20;82.50;;;;;;5034222;28;20251;-71
2022/05/19 11:55:26;;;;;;;2.45;2.00;;;30.00;84.10;;;;;;5038411;28;20213;-70
2022/05/19 11:58:04;;;;;;;5.47;2.20;;;30.40;83.20;;;;;;5037534;28;20208;-71
2022/05/19 12:00:36;;;;;;;5.50;2.42;;;30.60;82.20;;;;;;5037968;28;20177;-70
2022/05/19 12:03:32;;;;;;;3.63;2.58;;;30.80;81.70;;;;;;5038312;28;20168;-70
2022/05/19 12:06:03;;;;;;;4.28;2.22;;;31.00;80.20;;;;;;5041164;28;20265;-70
2022/05/19 12:08:44;;;;;;;2.67;2.00;;;31.30;81.80;;;;;;5036390;28;20223;-70
2022/05/19 12:11:16;;;;;;;3.22;2.33;;;31.50;79.80;;;;;;5037432;28;20234;-70
2022/05/19 12:13:50;;;;;;;3.38;2.20;;;31.50;79.00;;;;;;5037234;28;20208;-68
2022/05/19 12:16:38;;;;;;;3.15;2.10;;;31.60;78.80;;;;;;5022704;28;20259;-70
2022/05/19 12:19:07;;;;;;;5.18;2.20;;;31.70;77.50;;;;;;5034318;28;20236;-71
2022/05/19 12:21:42;;;;;;;2.10;1.88;;;31.80;78.70;;;;;;5033594;28;20223;-70
2022/05/19 12:24:12;;;;;;;4.45;2.10;;;31.90;78.60;;;;;;5037161;28;20192;-69
2022/05/19 12:26:49;;;;;;;6.45;2.30;;;32.10;78.30;;;;;;5037430;28;20173;-68
2022/05/19 12:29:33;;;;;;;3.00;2.05;;;32.30;78.50;;;;;;5054116;28;20184;-69
2022/05/19 12:32:08;;;;;;;1.90;1.73;;;32.50;77.70;;;;;;5035737;28;20177;-71
2022/05/19 12:34:41;;;;;;;2.88;1.90;;;32.70;77.50;;;;;;5033357;28;20188;-71
2022/05/19 12:37:07;;;;;;;2.72;2.13;;;32.80;75.20;;;;;;5030590;28;20181;-70
2022/05/19 12:39:48;;;;;;;3.88;2.00;;;32.90;76.80;;;;;;5037311;28;20326;-71
2022/05/19 12:42:28;;;;;;;3.47;2.03;;;32.90;75.00;;;;;;5031774;28;20165;-70
2022/05/19 12:44:56;;;;;;;2.90;1.90;;;33.00;74.80;;;;;;5036826;28;20179;-70
2022/05/19 12:47:30;;;;;;;2.70;2.15;;;33.10;75.00;;;;;;5027700;28;20207;-66
2022/05/19 12:50:06;;;;;;;4.57;2.03;;;33.10;73.80;;;;;;5033314;28;20235;-69
2022/05/19 12:53:04;;;;;;;5.57;2.33;;;33.10;73.50;;;;;;5027870;28;20173;-69
2022/05/19 12:55:42;;;;;;;3.75;1.98;;;33.10;73.10;;;;;;5051984;28;20168;-69
2022/05/19 12:58:46;;;;;;;4.18;1.98;;;33.00;73.30;;;;;;5036286;28;20200;-69
2022/05/19 13:01:43;;;;;;;2.78;1.95;;;33.00;72.70;;;;;;5033775;28;20181;-70
2022/05/19 13:04:20;;;;;;;2.95;1.90;;;32.90;74.00;;;;;;4978254;28;20188;-69
2022/05/19 13:07:04;;;;;;;3.00;1.90;;;33.00;73.90;;;;;;5040492;28;20192;-69
2022/05/19 13:09:32;;;;;;;3.35;2.05;;;33.20;73.90;;;;;;5032023;28;20260;-66
2022/05/19 13:12:05;;;;;;;4.20;2.10;;;33.30;74.40;;;;;;5033141;28;20181;-67
2022/05/19 13:14:40;;;;;;;3.53;2.28;;;33.40;73.90;;;;;;5036474;28;20192;-66
2022/05/19 13:17:14;;;;;;;3.70;2.20;;;33.70;73.90;;;;;;5036448;28;20171;-67
2022/05/19 13:19:41;;;;;;;4.57;2.10;;;33.80;72.20;;;;;;5036539;28;20287;-66
2022/05/19 13:22:10;;;;;;;2.67;1.80;;;33.90;71.30;;;;;;5034062;28;20370;-66
2022/05/19 13:24:43;;;;;;;2.10;1.60;;;34.00;70.80;;;;;;5052875;28;20212;-66
2022/05/19 13:32:39;;;;;;;2.05;1.80;;;33.50;68.30;;;;;;5053959;28;20230;-67
2022/05/19 13:35:07;;;;;;;1.88;1.67;;;33.40;68.00;;;;;;5032840;28;20165;-66
2022/05/19 13:37:39;;;;;;;2.78;1.80;;;33.20;67.90;;;;;;5042735;28;20262;-66
2022/05/19 13:40:32;;;;;;;5.85;2.03;;;33.00;67.10;;;;;;5017225;28;20174;-66